sensor_id;sensor_type;location;lat;lon;timestamp;pressure;altitude;pressure_sealevel;temperature;humidity
52719;BME280;38616;42.140;24.760;2023-12-14T00:01:40;98882.56;;;6.25;71.94
52719;BME280;38616;42.140;24.760;2023-12-14T00:04:06;98882.56;;;6.10;71.97
52719;BME280;38616;42.140;24.760;2023-12-14T00:06:32;98868.00;;;6.16;72.39
52719;BME280;38616;42.140;24.760;2023-12-14T00:08:57;98881.75;;;6.19;71.91
52719;BME280;38616;42.140;24.760;2023-12-14T00:11:23;98869.09;;;6.15;72.02
52719;BME280;38616;42.140;24.760;2023-12-14T00:13:48;98873.13;;;6.23;72.25
52719;BME280;38616;42.140;24.760;2023-12-14T00:16:14;98883.13;;;6.17;71.96
52719;BME280;38616;42.140;24.760;2023-12-14T00:18:39;98891.19;;;6.12;71.86
52719;BME280;38616;42.140;24.760;2023-12-14T00:21:05;98879.88;;;6.15;71.40
52719;BME280;38616;42.140;24.760;2023-12-14T00:23:31;98881.50;;;6.16;71.70
52719;BME280;38616;42.140;24.760;2023-12-14T00:25:56;98880.41;;;6.06;71.94
52719;BME280;38616;42.140;24.760;2023-12-14T00:28:22;98885.81;;;6.17;71.54
52719;BME280;38616;42.140;24.760;2023-12-14T00:30:48;98880.66;;;6.05;71.81
52719;BME280;38616;42.140;24.760;2023-12-14T00:33:13;98886.03;;;6.05;72.12
52719;BME280;38616;42.140;24.760;2023-12-14T00:35:39;98889.81;;;6.04;72.02
52719;BME280;38616;42.140;24.760;2023-12-14T00:38:04;98889.56;;;6.05;72.30
52719;BME280;38616;42.140;24.760;2023-12-14T00:40:30;98893.00;;;5.90;72.48
52719;BME280;38616;42.140;24.760;2023-12-14T00:42:58;98889.25;;;5.97;73.06
52719;BME280;38616;42.140;24.760;2023-12-14T00:45:23;98883.63;;;6.03;71.36
52719;BME280;38616;42.140;24.760;2023-12-14T00:47:49;98897.66;;;6.00;72.00
52719;BME280;38616;42.140;24.760;2023-12-14T00:50:14;98892.78;;;6.02;71.59
52719;BME280;38616;42.140;24.760;2023-12-14T00:52:39;98895.16;;;5.99;71.88
52719;BME280;38616;42.140;24.760;2023-12-14T00:55:05;98892.75;;;5.92;72.70
52719;BME280;38616;42.140;24.760;2023-12-14T00:57:31;98904.69;;;6.17;71.55
52719;BME280;38616;42.140;24.760;2023-12-14T00:59:56;98890.31;;;5.90;71.56
52719;BME280;38616;42.140;24.760;2023-12-14T01:02:22;98882.47;;;5.79;72.97
52719;BME280;38616;42.140;24.760;2023-12-14T01:04:48;98878.16;;;5.83;73.02
52719;BME280;38616;42.140;24.760;2023-12-14T01:07:13;98863.06;;;5.76;72.75
52719;BME280;38616;42.140;24.760;2023-12-14T01:09:38;98858.19;;;5.68;73.05
52719;BME280;38616;42.140;24.760;2023-12-14T01:12:04;98839.06;;;5.70;73.38
52719;BME280;38616;42.140;24.760;2023-12-14T01:14:30;98842.56;;;5.75;72.73
52719;BME280;38616;42.140;24.760;2023-12-14T01:16:55;98835.84;;;5.73;72.86
52719;BME280;38616;42.140;24.760;2023-12-14T01:19:21;98840.94;;;5.64;73.09
52719;BME280;38616;42.140;24.760;2023-12-14T01:21:46;98842.81;;;5.58;73.20
52719;BME280;38616;42.140;24.760;2023-12-14T01:24:12;98847.91;;;5.60;73.12
52719;BME280;38616;42.140;24.760;2023-12-14T01:26:37;98842.53;;;5.60;72.68
52719;BME280;38616;42.140;24.760;2023-12-14T01:29:02;98840.06;;;5.43;73.85
52719;BME280;38616;42.140;24.760;2023-12-14T01:31:28;98844.69;;;5.58;73.42
52719;BME280;38616;42.140;24.760;2023-12-14T01:33:54;98841.75;;;5.65;73.59
52719;BME280;38616;42.140;24.760;2023-12-14T01:36:20;98845.53;;;5.84;73.56
52719;BME280;38616;42.140;24.760;2023-12-14T01:38:46;98829.88;;;5.76;72.88
52719;BME280;38616;42.140;24.760;2023-12-14T01:41:12;98848.84;;;6.02;71.34
52719;BME280;38616;42.140;24.760;2023-12-14T01:43:37;98851.75;;;5.80;72.50
52719;BME280;38616;42.140;24.760;2023-12-14T01:46:03;98840.41;;;5.72;72.96
52719;BME280;38616;42.140;24.760;2023-12-14T01:48:28;98843.06;;;5.62;73.03
52719;BME280;38616;42.140;24.760;2023-12-14T01:50:54;98838.81;;;5.87;72.71
52719;BME280;38616;42.140;24.760;2023-12-14T01:53:20;98860.66;;;5.96;72.43
52719;BME280;38616;42.140;24.760;2023-12-14T01:55:45;98833.69;;;5.85;72.47
52719;BME280;38616;42.140;24.760;2023-12-14T01:58:13;98841.53;;;5.92;71.84
52719;BME280;38616;42.140;24.760;2023-12-14T02:00:44;98854.16;;;5.76;72.81
52719;BME280;38616;42.140;24.760;2023-12-14T02:03:12;98848.50;;;5.77;72.82
52719;BME280;38616;42.140;24.760;2023-12-14T02:05:37;98823.13;;;5.63;73.18
52719;BME280;38616;42.140;24.760;2023-12-14T02:08:03;98842.06;;;5.94;72.96
52719;BME280;38616;42.140;24.760;2023-12-14T02:10:28;98835.59;;;5.90;72.16
52719;BME280;38616;42.140;24.760;2023-12-14T02:12:54;98850.94;;;5.89;72.18
52719;BME280;38616;42.140;24.760;2023-12-14T02:15:19;98839.84;;;5.65;72.21
52719;BME280;38616;42.140;24.760;2023-12-14T02:17:45;98847.97;;;5.81;72.85
52719;BME280;38616;42.140;24.760;2023-12-14T02:20:11;98829.06;;;5.65;72.90
52719;BME280;38616;42.140;24.760;2023-12-14T02:22:53;98823.66;;;5.50;73.57
52719;BME280;38616;42.140;24.760;2023-12-14T02:25:20;98832.59;;;5.60;73.39
52719;BME280;38616;42.140;24.760;2023-12-14T02:27:46;98831.25;;;5.73;73.27
52719;BME280;38616;42.140;24.760;2023-12-14T02:30:13;98831.25;;;5.68;72.59
52719;BME280;38616;42.140;24.760;2023-12-14T02:32:39;98844.47;;;5.70;72.86
52719;BME280;38616;42.140;24.760;2023-12-14T02:35:05;98825.22;;;5.35;73.19
52719;BME280;38616;42.140;24.760;2023-12-14T02:37:32;98848.16;;;5.43;74.15
52719;BME280;38616;42.140;24.760;2023-12-14T02:39:58;98834.66;;;5.38;73.58
52719;BME280;38616;42.140;24.760;2023-12-14T02:42:24;98829.78;;;5.29;73.99
52719;BME280;38616;42.140;24.760;2023-12-14T02:44:49;98829.78;;;5.29;73.79
52719;BME280;38616;42.140;24.760;2023-12-14T02:47:15;98837.94;;;5.50;73.68
52719;BME280;38616;42.140;24.760;2023-12-14T02:49:41;98842.81;;;5.64;73.00
52719;BME280;38616;42.140;24.760;2023-12-14T02:52:06;98828.28;;;5.65;73.07
52719;BME280;38616;42.140;24.760;2023-12-14T02:54:32;98832.81;;;5.54;72.39
52719;BME280;38616;42.140;24.760;2023-12-14T02:56:57;98819.38;;;5.64;72.82
52719;BME280;38616;42.140;24.760;2023-12-14T02:59:23;98807.50;;;5.65;72.42
52719;BME280;38616;42.140;24.760;2023-12-14T03:01:48;98826.91;;;5.67;72.61
52719;BME280;38616;42.140;24.760;2023-12-14T03:04:14;98827.44;;;5.59;72.65
52719;BME280;38616;42.140;24.760;2023-12-14T03:06:39;98841.22;;;5.73;72.51
52719;BME280;38616;42.140;24.760;2023-12-14T03:09:05;98848.47;;;5.62;72.46
52719;BME280;38616;42.140;24.760;2023-12-14T03:11:30;98830.38;;;5.42;72.29
52719;BME280;38616;42.140;24.760;2023-12-14T03:13:56;98827.09;;;5.29;72.99
52719;BME280;38616;42.140;24.760;2023-12-14T03:16:21;98816.59;;;5.33;73.07
52719;BME280;38616;42.140;24.760;2023-12-14T03:18:47;98825.50;;;5.39;73.14
52719;BME280;38616;42.140;24.760;2023-12-14T03:21:17;98828.78;;;5.51;73.20
52719;BME280;38616;42.140;24.760;2023-12-14T03:23:43;98828.72;;;5.36;72.80
52719;BME280;38616;42.140;24.760;2023-12-14T03:26:09;98844.25;;;5.08;73.13
52719;BME280;38616;42.140;24.760;2023-12-14T03:28:34;98835.09;;;5.09;73.56
52719;BME280;38616;42.140;24.760;2023-12-14T03:31:00;98830.56;;;5.14;73.38
52719;BME280;38616;42.140;24.760;2023-12-14T03:33:26;98843.50;;;5.17;73.74
52719;BME280;38616;42.140;24.760;2023-12-14T03:35:54;98830.84;;;5.23;73.09
52719;BME280;38616;42.140;24.760;2023-12-14T03:38:19;98825.72;;;5.16;73.43
52719;BME280;38616;42.140;24.760;2023-12-14T03:40:45;98828.41;;;5.16;73.47
52719;BME280;38616;42.140;24.760;2023-12-14T03:43:10;98838.66;;;5.25;72.70
52719;BME280;38616;42.140;24.760;2023-12-14T03:45:35;98847.84;;;5.29;72.29
52719;BME280;38616;42.140;24.760;2023-12-14T03:48:01;98847.22;;;5.11;73.27
52719;BME280;38616;42.140;24.760;2023-12-14T03:50:26;98838.03;;;5.02;73.11
52719;BME280;38616;42.140;24.760;2023-12-14T03:52:53;98817.91;;;5.20;73.39
52719;BME280;38616;42.140;24.760;2023-12-14T03:55:18;98829.50;;;5.21;72.75
52719;BME280;38616;42.140;24.760;2023-12-14T03:57:44;98837.25;;;5.12;73.31
52719;BME280;38616;42.140;24.760;2023-12-14T04:00:13;98835.34;;;5.02;73.76
52719;BME280;38616;42.140;24.760;2023-12-14T04:02:39;98847.78;;;5.13;73.53
52719;BME280;38616;42.140;24.760;2023-12-14T04:05:09;98817.34;;;5.18;73.79
52719;BME280;38616;42.140;24.760;2023-12-14T04:07:38;98812.53;;;5.25;73.56
52719;BME280;38616;42.140;24.760;2023-12-14T04:10:10;98825.81;;;5.53;72.36
52719;BME280;38616;42.140;24.760;2023-12-14T04:12:36;98812.28;;;5.27;72.91
52719;BME280;38616;42.140;24.760;2023-12-14T04:15:03;98817.09;;;5.20;73.76
52719;BME280;38616;42.140;24.760;2023-12-14T04:53:19;98813.63;;;4.66;75.77
52719;BME280;38616;42.140;24.760;2023-12-14T07:09:46;98856.41;;;4.67;76.05
52719;BME280;38616;42.140;24.760;2023-12-14T07:12:11;98860.94;;;4.62;77.17
52719;BME280;38616;42.140;24.760;2023-12-14T07:14:38;98856.50;;;4.88;76.78
52719;BME280;38616;42.140;24.760;2023-12-14T07:17:07;98843.06;;;4.88;76.23
52719;BME280;38616;42.140;24.760;2023-12-14T07:19:43;98862.00;;;5.09;75.74
52719;BME280;38616;42.140;24.760;2023-12-14T07:22:08;98861.41;;;4.96;75.72
52719;BME280;38616;42.140;24.760;2023-12-14T07:24:34;98861.56;;;5.27;74.46
52719;BME280;38616;42.140;24.760;2023-12-14T07:26:59;98859.69;;;5.28;74.39
52719;BME280;38616;42.140;24.760;2023-12-14T07:29:25;98866.44;;;5.36;74.13
52719;BME280;38616;42.140;24.760;2023-12-14T07:31:51;98872.59;;;5.21;74.51
52719;BME280;38616;42.140;24.760;2023-12-14T07:34:17;98854.84;;;5.30;73.63
52719;BME280;38616;42.140;24.760;2023-12-14T07:36:42;98871.34;;;5.49;73.90
52719;BME280;38616;42.140;24.760;2023-12-14T07:39:07;98856.75;;;5.40;73.66
52719;BME280;38616;42.140;24.760;2023-12-14T07:41:34;98869.72;;;5.48;73.64
52719;BME280;38616;42.140;24.760;2023-12-14T07:44:01;98869.75;;;5.53;73.38
52719;BME280;38616;42.140;24.760;2023-12-14T07:46:26;98861.41;;;5.65;72.92
52719;BME280;38616;42.140;24.760;2023-12-14T07:48:52;98871.84;;;5.36;73.18
52719;BME280;38616;42.140;24.760;2023-12-14T07:51:17;98889.06;;;5.35;73.98
52719;BME280;38616;42.140;24.760;2023-12-14T07:53:43;98886.09;;;5.36;74.12
52719;BME280;38616;42.140;24.760;2023-12-14T07:56:08;98874.03;;;5.44;74.15
52719;BME280;38616;42.140;24.760;2023-12-14T07:58:34;98870.53;;;5.54;73.42
52719;BME280;38616;42.140;24.760;2023-12-14T08:01:02;98885.97;;;5.84;73.65
52719;BME280;38616;42.140;24.760;2023-12-14T08:03:27;98895.41;;;5.76;72.50
52719;BME280;38616;42.140;24.760;2023-12-14T08:05:53;98898.59;;;5.63;73.16
52719;BME280;38616;42.140;24.760;2023-12-14T08:08:18;98888.94;;;5.77;73.00
52719;BME280;38616;42.140;24.760;2023-12-14T08:10:44;98875.25;;;6.05;72.41
52719;BME280;38616;42.140;24.760;2023-12-14T08:13:09;98876.09;;;6.05;72.01
52719;BME280;38616;42.140;24.760;2023-12-14T08:15:35;98873.13;;;6.23;71.98
52719;BME280;38616;42.140;24.760;2023-12-14T08:18:00;98880.69;;;6.36;71.70
52719;BME280;38616;42.140;24.760;2023-12-14T08:20:26;98880.94;;;6.24;71.65
52719;BME280;38616;42.140;24.760;2023-12-14T08:22:51;98873.13;;;6.48;70.53
52719;BME280;38616;42.140;24.760;2023-12-14T08:25:17;98885.00;;;6.42;70.80
52719;BME280;38616;42.140;24.760;2023-12-14T08:27:43;98865.56;;;6.40;71.01
52719;BME280;38616;42.140;24.760;2023-12-14T08:30:12;98882.56;;;6.25;71.55
52719;BME280;38616;42.140;24.760;2023-12-14T08:32:38;98879.34;;;6.18;71.68
52719;BME280;38616;42.140;24.760;2023-12-14T08:35:04;98883.63;;;6.09;71.67
52719;BME280;38616;42.140;24.760;2023-12-14T08:37:30;98865.03;;;6.23;72.14
52719;BME280;38616;42.140;24.760;2023-12-14T08:39:55;98862.59;;;6.31;71.35
52719;BME280;38616;42.140;24.760;2023-12-14T08:42:21;98870.44;;;6.28;70.76
52719;BME280;38616;42.140;24.760;2023-12-14T08:44:47;98883.63;;;6.50;70.79
52719;BME280;38616;42.140;24.760;2023-12-14T08:47:12;98880.69;;;6.62;70.51
52719;BME280;38616;42.140;24.760;2023-12-14T08:49:38;98887.41;;;6.44;70.59
52719;BME280;38616;42.140;24.760;2023-12-14T08:52:03;98886.34;;;6.50;70.83
52719;BME280;38616;42.140;24.760;2023-12-14T08:54:32;98893.63;;;6.55;70.32
52719;BME280;38616;42.140;24.760;2023-12-14T08:56:57;98900.63;;;6.71;70.05
52719;BME280;38616;42.140;24.760;2023-12-14T08:59:23;98873.06;;;6.74;70.11
52719;BME280;38616;42.140;24.760;2023-12-14T09:01:49;98879.00;;;6.92;70.03
52719;BME280;38616;42.140;24.760;2023-12-14T09:04:14;98874.63;;;7.12;69.06
52719;BME280;38616;42.140;24.760;2023-12-14T09:06:40;98885.16;;;7.08;68.01
52719;BME280;38616;42.140;24.760;2023-12-14T09:09:10;98886.47;;;7.21;67.81
52719;BME280;38616;42.140;24.760;2023-12-14T09:11:36;98881.25;;;7.45;67.50
52719;BME280;38616;42.140;24.760;2023-12-14T09:14:02;98867.22;;;7.38;68.11
52719;BME280;38616;42.140;24.760;2023-12-14T09:16:28;98861.25;;;7.46;68.59
52719;BME280;38616;42.140;24.760;2023-12-14T09:18:53;98848.75;;;7.61;68.01
52719;BME280;38616;42.140;24.760;2023-12-14T09:21:19;98844.41;;;7.65;67.23
52719;BME280;38616;42.140;24.760;2023-12-14T09:23:44;98846.50;;;7.73;67.63
52719;BME280;38616;42.140;24.760;2023-12-14T09:26:09;98854.97;;;8.01;67.36
52719;BME280;38616;42.140;24.760;2023-12-14T09:28:36;98836.13;;;7.91;66.15
52719;BME280;38616;42.140;24.760;2023-12-14T09:31:02;98826.31;;;8.00;65.75
52719;BME280;38616;42.140;24.760;2023-12-14T09:33:28;98826.81;;;8.02;65.97
52719;BME280;38616;42.140;24.760;2023-12-14T09:35:53;98816.09;;;7.92;66.09
52719;BME280;38616;42.140;24.760;2023-12-14T09:38:19;98832.88;;;7.94;66.59
52719;BME280;38616;42.140;24.760;2023-12-14T09:40:44;98821.88;;;8.14;66.04
52719;BME280;38616;42.140;24.760;2023-12-14T09:43:10;98815.63;;;8.19;65.53
52719;BME280;38616;42.140;24.760;2023-12-14T09:45:38;98810.00;;;8.40;65.21
52719;BME280;38616;42.140;24.760;2023-12-14T09:48:08;98807.56;;;8.43;64.76
52719;BME280;38616;42.140;24.760;2023-12-14T09:50:35;98800.53;;;8.42;65.33
52719;BME280;38616;42.140;24.760;2023-12-14T09:53:00;98807.03;;;8.41;64.62
52719;BME280;38616;42.140;24.760;2023-12-14T09:55:26;98802.13;;;8.43;64.55
52719;BME280;38616;42.140;24.760;2023-12-14T09:57:52;98792.63;;;8.46;64.73
52719;BME280;38616;42.140;24.760;2023-12-14T10:00:35;98807.03;;;8.41;64.94
52719;BME280;38616;42.140;24.760;2023-12-14T10:03:20;98803.69;;;8.55;64.77
52719;BME280;38616;42.140;24.760;2023-12-14T10:05:46;98806.59;;;8.58;64.77
52719;BME280;38616;42.140;24.760;2023-12-14T10:08:14;98800.25;;;8.74;64.37
52719;BME280;38616;42.140;24.760;2023-12-14T10:10:39;98796.91;;;9.06;63.43
52719;BME280;38616;42.140;24.760;2023-12-14T10:13:05;98794.13;;;8.87;63.77
52719;BME280;38616;42.140;24.760;2023-12-14T10:15:43;98779.56;;;8.83;63.88
52719;BME280;38616;42.140;24.760;2023-12-14T10:18:09;98785.59;;;8.99;63.34
52719;BME280;38616;42.140;24.760;2023-12-14T10:20:35;98784.03;;;8.93;63.80
52719;BME280;38616;42.140;24.760;2023-12-14T10:23:04;98770.03;;;8.85;64.24
52719;BME280;38616;42.140;24.760;2023-12-14T10:28:00;98774.75;;;8.99;64.05
52719;BME280;38616;42.140;24.760;2023-12-14T10:30:27;98773.59;;;9.05;63.53
52719;BME280;38616;42.140;24.760;2023-12-14T10:32:53;98763.16;;;8.93;63.89
52719;BME280;38616;42.140;24.760;2023-12-14T10:35:19;98752.22;;;9.04;63.79
52719;BME280;38616;42.140;24.760;2023-12-14T10:40:34;98746.25;;;9.26;63.49
52719;BME280;38616;42.140;24.760;2023-12-14T10:43:03;98743.28;;;9.22;63.14
52719;BME280;38616;42.140;24.760;2023-12-14T10:45:33;98739.50;;;9.23;63.52
52719;BME280;38616;42.140;24.760;2023-12-14T10:47:59;98741.75;;;9.16;63.75
52719;BME280;38616;42.140;24.760;2023-12-14T10:50:28;98742.00;;;9.39;63.42
52719;BME280;38616;42.140;24.760;2023-12-14T10:52:54;98758.09;;;9.49;62.72
52719;BME280;38616;42.140;24.760;2023-12-14T10:57:48;98757.28;;;9.10;63.80
52719;BME280;38616;42.140;24.760;2023-12-14T11:02:48;98745.41;;;9.25;63.85
52719;BME280;38616;42.140;24.760;2023-12-14T11:05:16;98748.19;;;9.39;63.01
52719;BME280;38616;42.140;24.760;2023-12-14T11:10:10;98747.84;;;9.27;64.03
52719;BME280;38616;42.140;24.760;2023-12-14T11:12:37;98750.19;;;9.34;63.63
52719;BME280;38616;42.140;24.760;2023-12-14T11:15:04;98740.00;;;9.25;63.57
52719;BME280;38616;42.140;24.760;2023-12-14T11:17:30;98732.38;;;9.27;64.08
52719;BME280;38616;42.140;24.760;2023-12-14T11:19:56;98738.53;;;9.33;64.10
52719;BME280;38616;42.140;24.760;2023-12-14T11:22:27;98735.97;;;9.42;64.43
52719;BME280;38616;42.140;24.760;2023-12-14T11:24:55;98739.28;;;9.20;65.35
52719;BME280;38616;42.140;24.760;2023-12-14T11:27:30;98732.91;;;9.29;64.66
52719;BME280;38616;42.140;24.760;2023-12-14T11:29:56;98747.69;;;9.37;64.92
52719;BME280;38616;42.140;24.760;2023-12-14T11:32:24;98742.25;;;9.18;65.85
52719;BME280;38616;42.140;24.760;2023-12-14T11:34:50;98732.91;;;9.10;66.10
52719;BME280;38616;42.140;24.760;2023-12-14T11:37:16;98741.03;;;9.10;66.03
52719;BME280;38616;42.140;24.760;2023-12-14T11:39:42;98744.38;;;9.02;66.51
52719;BME280;38616;42.140;24.760;2023-12-14T11:42:09;98729.44;;;9.05;66.50
52719;BME280;38616;42.140;24.760;2023-12-14T11:44:37;98730.03;;;9.01;67.08
52719;BME280;38616;42.140;24.760;2023-12-14T11:47:03;98723.81;;;9.20;66.38
52719;BME280;38616;42.140;24.760;2023-12-14T11:49:29;98736.41;;;9.11;66.52
52719;BME280;38616;42.140;24.760;2023-12-14T11:51:55;98731.22;;;9.34;66.47
52719;BME280;38616;42.140;24.760;2023-12-14T11:54:21;98723.75;;;9.25;66.43
52719;BME280;38616;42.140;24.760;2023-12-14T11:56:50;98728.88;;;9.46;65.72
52719;BME280;38616;42.140;24.760;2023-12-14T11:59:19;98728.50;;;9.34;65.64
52719;BME280;38616;42.140;24.760;2023-12-14T12:01:58;98724.63;;;9.40;66.27
52719;BME280;38616;42.140;24.760;2023-12-14T12:04:24;98725.78;;;9.53;65.84
52719;BME280;38616;42.140;24.760;2023-12-14T12:06:59;98726.16;;;9.46;65.90
52719;BME280;38616;42.140;24.760;2023-12-14T12:09:43;98732.59;;;9.12;66.87
52719;BME280;38616;42.140;24.760;2023-12-14T12:12:09;98731.34;;;9.23;66.80
52719;BME280;38616;42.140;24.760;2023-12-14T12:14:36;98732.31;;;9.32;66.91
52719;BME280;38616;42.140;24.760;2023-12-14T12:17:03;98736.50;;;9.25;67.21
52719;BME280;38616;42.140;24.760;2023-12-14T12:19:36;98721.16;;;9.34;67.03
52719;BME280;38616;42.140;24.760;2023-12-14T12:22:03;98716.53;;;8.96;68.13
52719;BME280;38616;42.140;24.760;2023-12-14T12:24:29;98725.69;;;9.00;68.11
52719;BME280;38616;42.140;24.760;2023-12-14T12:26:55;98728.34;;;9.06;68.09
52719;BME280;38616;42.140;24.760;2023-12-14T12:29:23;98721.53;;;9.27;67.74
52719;BME280;38616;42.140;24.760;2023-12-14T12:31:49;98718.91;;;9.22;67.44
52719;BME280;38616;42.140;24.760;2023-12-14T12:34:14;98722.19;;;9.19;67.49
52719;BME280;38616;42.140;24.760;2023-12-14T12:36:40;98726.16;;;9.08;67.87
52719;BME280;38616;42.140;24.760;2023-12-14T12:39:06;98726.00;;;9.18;67.78
52719;BME280;38616;42.140;24.760;2023-12-14T12:41:32;98734.50;;;9.30;67.31
52719;BME280;38616;42.140;24.760;2023-12-14T12:43:58;98727.63;;;9.19;67.60
52719;BME280;38616;42.140;24.760;2023-12-14T12:46:36;98733.63;;;9.16;67.77
52719;BME280;38616;42.140;24.760;2023-12-14T12:49:03;98739.22;;;9.25;68.17
52719;BME280;38616;42.140;24.760;2023-12-14T12:51:29;98727.53;;;9.43;67.75
52719;BME280;38616;42.140;24.760;2023-12-14T12:53:57;98738.53;;;9.52;66.83
52719;BME280;38616;42.140;24.760;2023-12-14T12:56:23;98732.97;;;9.63;67.00
52719;BME280;38616;42.140;24.760;2023-12-14T12:58:49;98725.25;;;9.70;66.12
52719;BME280;38616;42.140;24.760;2023-12-14T13:01:17;98741.16;;;9.76;65.89
52719;BME280;38616;42.140;24.760;2023-12-14T13:03:43;98737.84;;;9.80;65.78
52719;BME280;38616;42.140;24.760;2023-12-14T13:06:11;98743.53;;;9.78;65.75
52719;BME280;38616;42.140;24.760;2023-12-14T13:08:36;98742.75;;;9.78;65.64
52719;BME280;38616;42.140;24.760;2023-12-14T13:11:02;98736.94;;;9.84;65.39
52719;BME280;38616;42.140;24.760;2023-12-14T13:13:27;98742.59;;;9.88;65.60
52719;BME280;38616;42.140;24.760;2023-12-14T13:15:53;98749.41;;;9.85;65.30
52719;BME280;38616;42.140;24.760;2023-12-14T13:18:18;98750.59;;;9.79;65.67
52719;BME280;38616;42.140;24.760;2023-12-14T13:20:44;98747.19;;;9.87;65.55
52719;BME280;38616;42.140;24.760;2023-12-14T13:23:09;98746.31;;;9.92;65.40
52719;BME280;38616;42.140;24.760;2023-12-14T13:25:36;98748.97;;;9.78;65.56
52719;BME280;38616;42.140;24.760;2023-12-14T13:28:02;98750.00;;;9.82;65.42
52719;BME280;38616;42.140;24.760;2023-12-14T13:30:29;98725.84;;;9.67;65.78
52719;BME280;38616;42.140;24.760;2023-12-14T13:32:54;98744.31;;;9.65;66.37
52719;BME280;38616;42.140;24.760;2023-12-14T13:35:20;98742.97;;;9.81;66.01
52719;BME280;38616;42.140;24.760;2023-12-14T13:37:47;98733.69;;;9.68;66.05
52719;BME280;38616;42.140;24.760;2023-12-14T13:40:13;98730.94;;;9.87;65.90
52719;BME280;38616;42.140;24.760;2023-12-14T13:42:39;98743.94;;;9.71;65.90
52719;BME280;38616;42.140;24.760;2023-12-14T13:45:05;98737.34;;;9.78;65.93
52719;BME280;38616;42.140;24.760;2023-12-14T13:47:30;98736.94;;;9.84;65.75
52719;BME280;38616;42.140;24.760;2023-12-14T13:49:56;98726.81;;;9.90;65.31
52719;BME280;38616;42.140;24.760;2023-12-14T13:52:21;98725.91;;;9.95;65.46
52719;BME280;38616;42.140;24.760;2023-12-14T13:54:47;98732.78;;;10.06;65.37
52719;BME280;38616;42.140;24.760;2023-12-14T13:57:15;98743.13;;;10.04;65.20
52719;BME280;38616;42.140;24.760;2023-12-14T13:59:40;98744.66;;;9.77;65.71
52719;BME280;38616;42.140;24.760;2023-12-14T14:02:06;98744.72;;;9.72;66.21
52719;BME280;38616;42.140;24.760;2023-12-14T14:04:35;98745.50;;;9.91;65.73
52719;BME280;38616;42.140;24.760;2023-12-14T14:07:00;98755.50;;;9.77;66.01
52719;BME280;38616;42.140;24.760;2023-12-14T14:09:26;98763.56;;;9.82;66.25
52719;BME280;38616;42.140;24.760;2023-12-14T14:11:51;98764.50;;;9.91;66.03
52719;BME280;38616;42.140;24.760;2023-12-14T14:14:17;98763.47;;;9.87;65.87
52719;BME280;38616;42.140;24.760;2023-12-14T14:16:42;98774.13;;;9.84;66.13
52719;BME280;38616;42.140;24.760;2023-12-14T14:19:08;98780.94;;;9.81;66.31
52719;BME280;38616;42.140;24.760;2023-12-14T14:21:33;98772.59;;;9.78;66.20
52719;BME280;38616;42.140;24.760;2023-12-14T14:23:58;98775.50;;;9.81;66.35
52719;BME280;38616;42.140;24.760;2023-12-14T14:26:24;98761.22;;;9.75;66.33
52719;BME280;38616;42.140;24.760;2023-12-14T14:28:49;98772.66;;;9.72;66.62
52719;BME280;38616;42.140;24.760;2023-12-14T14:31:15;98770.44;;;9.94;66.45
52719;BME280;38616;42.140;24.760;2023-12-14T14:33:40;98769.13;;;9.72;66.72
52719;BME280;38616;42.140;24.760;2023-12-14T14:36:06;98753.69;;;9.72;66.79
52719;BME280;38616;42.140;24.760;2023-12-14T14:38:33;98765.84;;;9.75;66.65
52719;BME280;38616;42.140;24.760;2023-12-14T14:40:59;98778.69;;;9.69;67.00
52719;BME280;38616;42.140;24.760;2023-12-14T14:43:24;98772.47;;;9.69;67.04
52719;BME280;38616;42.140;24.760;2023-12-14T14:45:50;98768.41;;;9.66;66.73
52719;BME280;38616;42.140;24.760;2023-12-14T14:48:15;98786.16;;;9.78;66.75
52719;BME280;38616;42.140;24.760;2023-12-14T14:50:41;98792.38;;;9.78;66.38
52719;BME280;38616;42.140;24.760;2023-12-14T14:53:07;98791.06;;;9.75;66.37
52719;BME280;38616;42.140;24.760;2023-12-14T14:55:32;98794.56;;;9.76;66.78
52719;BME280;38616;42.140;24.760;2023-12-14T14:57:58;98789.72;;;9.73;66.94
52719;BME280;38616;42.140;24.760;2023-12-14T15:00:24;98785.34;;;9.77;66.91
52719;BME280;38616;42.140;24.760;2023-12-14T15:02:51;98785.13;;;9.73;67.10
52719;BME280;38616;42.140;24.760;2023-12-14T15:05:16;98784.94;;;9.70;66.89
52719;BME280;38616;42.140;24.760;2023-12-14T15:07:41;98791.34;;;9.74;67.04
52719;BME280;38616;42.140;24.760;2023-12-14T15:10:07;98802.44;;;9.78;66.55
52719;BME280;38616;42.140;24.760;2023-12-14T15:12:33;98800.00;;;9.76;66.47
52719;BME280;38616;42.140;24.760;2023-12-14T15:14:58;98796.94;;;9.64;66.67
52719;BME280;38616;42.140;24.760;2023-12-14T15:17:24;98803.81;;;9.75;67.04
52719;BME280;38616;42.140;24.760;2023-12-14T15:19:49;98826.72;;;9.69;66.98
52719;BME280;38616;42.140;24.760;2023-12-14T15:22:18;98810.50;;;9.64;67.23
52719;BME280;38616;42.140;24.760;2023-12-14T15:24:43;98803.75;;;9.61;67.32
52719;BME280;38616;42.140;24.760;2023-12-14T15:27:09;98812.63;;;9.67;66.96
52719;BME280;38616;42.140;24.760;2023-12-14T15:29:35;98812.31;;;9.68;67.51
52719;BME280;38616;42.140;24.760;2023-12-14T15:32:00;98821.88;;;9.66;67.80
52719;BME280;38616;42.140;24.760;2023-12-14T15:34:26;98821.63;;;9.62;67.75
52719;BME280;38616;42.140;24.760;2023-12-14T15:36:51;98824.13;;;9.58;67.90
52719;BME280;38616;42.140;24.760;2023-12-14T15:39:17;98837.69;;;9.58;67.83
52719;BME280;38616;42.140;24.760;2023-12-14T15:41:42;98829.25;;;9.60;68.23
52719;BME280;38616;42.140;24.760;2023-12-14T15:44:08;98843.63;;;9.60;67.91
52719;BME280;38616;42.140;24.760;2023-12-14T15:46:33;98842.88;;;9.55;67.91
52719;BME280;38616;42.140;24.760;2023-12-14T15:48:59;98830.22;;;9.50;67.98
52719;BME280;38616;42.140;24.760;2023-12-14T15:51:24;98829.63;;;9.72;67.54
52719;BME280;38616;42.140;24.760;2023-12-14T15:53:50;98847.50;;;9.54;67.98
52719;BME280;38616;42.140;24.760;2023-12-14T15:56:16;98845.97;;;9.48;68.13
52719;BME280;38616;42.140;24.760;2023-12-14T15:58:41;98834.09;;;9.44;68.25